createdAt,value
2019-04-23T00:02:39.335Z,5.58
2019-04-23T00:04:59.539Z,4.90
2019-04-23T00:07:44.530Z,5.75
2019-04-23T00:10:12.675Z,4.33
2019-04-23T00:12:44.819Z,5.72
2019-04-23T00:15:12.009Z,4.37
2019-04-23T00:17:38.527Z,5.45
2019-04-23T00:20:06.746Z,4.78
2019-04-23T00:22:43.802Z,4.00
2019-04-23T00:27:50.077Z,3.67
2019-04-23T00:30:18.837Z,3.80
2019-04-23T00:32:46.158Z,5.35
2019-04-23T00:35:16.074Z,2.98
2019-04-23T00:37:44.386Z,3.50
2019-04-23T00:40:11.445Z,6.45
2019-04-23T00:42:41.548Z,6.97
2019-04-23T00:45:08.288Z,8.18
2019-04-23T00:47:38.439Z,5.85
2019-04-23T00:52:35.281Z,5.42
2019-04-23T00:57:37.350Z,5.50
2019-04-23T01:00:15.099Z,6.75
2019-04-23T01:05:04.244Z,4.47
2019-04-23T01:07:34.825Z,5.60
2019-04-23T01:10:06.153Z,5.20
2019-04-23T01:12:31.270Z,6.37
2019-04-23T01:14:58.829Z,5.65
2019-04-23T01:17:33.705Z,4.85
2019-04-23T01:20:10.433Z,6.25
2019-04-23T01:22:31.697Z,5.50
2019-04-23T01:25:15.161Z,6.67
2019-04-23T01:28:19.634Z,8.48
2019-04-23T01:30:40.904Z,5.58
2019-04-23T01:33:18.356Z,5.95
2019-04-23T01:35:55.666Z,6.87
2019-04-23T01:38:09.384Z,7.80
2019-04-23T01:41:07.686Z,7.17
2019-04-23T01:43:02.988Z,7.72
2019-04-23T01:45:30.748Z,7.65
2019-04-23T01:47:59.992Z,7.00
2019-04-23T01:50:37.806Z,7.62
2019-04-23T01:53:08.101Z,7.58
2019-04-23T01:58:05.777Z,6.90
2019-04-23T02:00:41.266Z,7.65
2019-04-23T02:03:03.689Z,6.20
2019-04-23T02:05:27.345Z,6.55
2019-04-23T02:10:29.539Z,7.62
2019-04-23T02:12:55.731Z,7.20
2019-04-23T02:15:16.873Z,6.03
2019-04-23T02:17:53.226Z,6.72
2019-04-23T02:20:16.045Z,5.67
2019-04-23T02:25:48.389Z,6.83
2019-04-23T02:27:59.898Z,8.05
2019-04-23T02:30:49.507Z,8.30
2019-04-23T02:35:32.759Z,6.22
2019-04-23T02:38:00.283Z,6.20
2019-04-23T02:40:30.396Z,5.47
2019-04-23T02:43:00.986Z,7.62
2019-04-23T02:45:15.980Z,8.25
2019-04-23T02:47:55.467Z,6.37
2019-04-23T02:50:33.067Z,6.80
2019-04-23T02:52:47.274Z,6.92
2019-04-23T03:00:19.283Z,7.37
2019-04-23T03:05:04.468Z,7.30
2019-04-23T03:15:11.085Z,7.15
2019-04-23T03:17:36.993Z,5.75
2019-04-23T03:20:14.889Z,6.58
2019-04-23T03:23:16.573Z,5.95
2019-04-23T03:25:26.198Z,6.00
2019-04-23T03:27:46.415Z,6.87
2019-04-23T03:30:33.414Z,5.00
2019-04-23T03:35:15.982Z,7.87
2019-04-23T03:37:46.334Z,6.17
2019-04-23T03:40:19.284Z,4.83
2019-04-23T03:42:42.602Z,6.30
2019-04-23T03:47:37.413Z,7.22
2019-04-23T03:52:38.717Z,6.22
2019-04-23T03:55:11.714Z,6.42
2019-04-23T03:57:30.298Z,4.47
2019-04-23T04:07:41.933Z,4.83
2019-04-23T04:09:52.099Z,5.08
2019-04-23T04:15:01.199Z,6.80
2019-04-23T04:17:19.660Z,6.87
2019-04-23T04:20:02.388Z,6.10
2019-04-23T04:27:32.220Z,6.67
2019-04-23T04:29:56.544Z,6.70
2019-04-23T04:32:06.470Z,7.15
2019-04-23T04:35:07.287Z,7.50
2019-04-23T04:39:42.980Z,8.13
2019-04-23T04:44:43.269Z,8.15
2019-04-23T04:49:42.241Z,10.30
2019-04-23T04:54:22.933Z,6.95
2019-04-23T04:57:08.022Z,6.37
2019-04-23T04:59:29.273Z,8.23
2019-04-23T05:04:27.889Z,6.42
2019-04-23T05:07:04.454Z,4.92
2019-04-23T05:09:25.200Z,5.58
2019-04-23T05:11:51.877Z,4.62
2019-04-23T05:14:13.392Z,4.85
2019-04-23T05:16:47.057Z,6.42
2019-04-23T05:19:22.254Z,6.58
2019-04-23T05:21:46.659Z,5.72
2019-04-23T05:24:08.308Z,6.22
2019-04-23T05:26:51.665Z,6.80
2019-04-23T05:29:04.803Z,6.92
2019-04-23T05:31:27.920Z,8.65
2019-04-23T05:34:02.991Z,7.22
2019-04-23T05:36:35.870Z,8.68
2019-04-23T05:43:54.363Z,25.45
2019-04-23T05:46:30.832Z,27.13
2019-04-23T05:51:27.950Z,7.70
2019-04-23T20:34:34.118Z,1.57
2019-04-23T20:42:07.568Z,1.57
2019-04-23T20:44:35.131Z,1.22
2019-04-23T20:47:00.115Z,0.82
2019-04-23T20:49:28.451Z,0.93
2019-04-23T20:54:35.486Z,1.90
2019-04-23T20:57:22.865Z,0.88
2019-04-23T20:59:49.713Z,1.20
2019-04-23T21:02:27.256Z,0.60
2019-04-23T21:04:58.939Z,1.07
2019-04-23T21:07:52.604Z,0.98
2019-04-23T21:12:52.552Z,1.05
2019-04-23T21:15:10.378Z,1.17
2019-04-23T21:17:37.647Z,1.10
2019-04-23T21:20:08.861Z,1.10
2019-04-23T21:24:51.493Z,1.40
2019-04-23T21:27:43.474Z,0.82
2019-04-23T21:32:52.619Z,0.93
2019-04-23T21:35:05.315Z,0.93
2019-04-23T21:37:42.820Z,1.60
2019-04-23T21:40:32.551Z,1.32
2019-04-23T21:42:55.985Z,0.80
2019-04-23T21:45:19.337Z,1.02
2019-04-23T21:47:53.426Z,0.57
2019-04-23T21:50:20.130Z,0.82
2019-04-23T21:52:41.655Z,0.68
2019-04-23T21:55:10.896Z,0.72
2019-04-23T22:00:08.656Z,0.95
2019-04-23T22:02:49.517Z,0.75
2019-04-23T22:07:47.735Z,0.90
2019-04-23T22:10:07.290Z,0.95
2019-04-23T22:12:34.169Z,0.98
2019-04-23T22:17:25.082Z,0.88
2019-04-23T22:20:06.098Z,0.93
2019-04-23T22:22:28.625Z,0.70
2019-04-23T22:24:54.586Z,0.72
2019-04-23T22:27:16.214Z,0.80
2019-04-23T22:29:51.957Z,0.72
2019-04-23T22:32:33.943Z,0.40
2019-04-23T22:34:57.195Z,0.70
2019-04-23T22:37:23.176Z,0.62
2019-04-23T22:39:52.500Z,0.60
2019-04-23T22:42:36.386Z,0.80
2019-04-23T22:47:08.760Z,0.57
2019-04-23T22:50:02.612Z,0.80
2019-04-23T22:52:25.027Z,0.93
2019-04-23T22:54:58.967Z,0.68
2019-04-23T22:57:09.135Z,0.85
2019-04-23T23:00:02.560Z,0.60
2019-04-23T23:02:15.075Z,0.90
2019-04-23T23:05:06.355Z,0.70
2019-04-23T23:07:22.369Z,0.75
2019-04-23T23:12:14.353Z,1.05
2019-04-23T23:14:52.168Z,0.72
2019-04-23T23:17:11.417Z,0.42
2019-04-23T23:24:37.602Z,0.78
2019-04-23T23:27:11.685Z,0.88
2019-04-23T23:29:27.683Z,0.78
2019-04-23T23:34:36.682Z,0.53
2019-04-23T23:37:02.118Z,0.33
2019-04-23T23:41:56.989Z,0.98
2019-04-23T23:44:34.023Z,0.65
2019-04-23T23:47:03.186Z,0.50
2019-04-23T23:49:27.940Z,0.50
2019-04-23T23:51:49.291Z,0.57
2019-04-23T23:54:26.642Z,0.82
2019-04-23T23:56:54.789Z,0.25
